sensor_id;sensor_type;location;lat;lon;timestamp;pressure;altitude;pressure_sealevel;temperature;humidity
54038;BME280;39954;48.844;9.726;2023-04-28T00:00:52;95952.03;;;6.67;100.00
54038;BME280;39954;48.844;9.726;2023-04-28T00:01:57;95955.34;;;6.69;100.00
54038;BME280;39954;48.844;9.726;2023-04-28T00:02:59;95950.06;;;6.72;100.00
54038;BME280;39954;48.844;9.726;2023-04-28T00:04:04;95954.19;;;6.76;100.00
54038;BME280;39954;48.844;9.726;2023-04-28T00:05:07;95947.22;;;6.78;100.00
54038;BME280;39954;48.844;9.726;2023-04-28T00:06:13;95942.91;;;6.79;100.00
54038;BME280;39954;48.844;9.726;2023-04-28T00:07:15;95947.09;;;6.81;100.00
54038;BME280;39954;48.844;9.726;2023-04-28T00:08:19;95944.38;;;6.84;100.00
54038;BME280;39954;48.844;9.726;2023-04-28T00:09:24;95938.97;;;6.89;100.00
54038;BME280;39954;48.844;9.726;2023-04-28T00:10:29;95936.28;;;6.92;100.00
54038;BME280;39954;48.844;9.726;2023-04-28T00:11:34;95932.66;;;6.96;100.00
54038;BME280;39954;48.844;9.726;2023-04-28T00:12:39;95934.25;;;6.99;100.00
54038;BME280;39954;48.844;9.726;2023-04-28T00:13:41;95932.44;;;7.01;100.00
54038;BME280;39954;48.844;9.726;2023-04-28T00:14:46;95936.56;;;7.05;100.00
54038;BME280;39954;48.844;9.726;2023-04-28T00:15:48;95930.38;;;7.09;100.00
54038;BME280;39954;48.844;9.726;2023-04-28T00:16:53;95920.78;;;7.11;100.00
54038;BME280;39954;48.844;9.726;2023-04-28T00:17:57;95924.13;;;7.13;100.00
54038;BME280;39954;48.844;9.726;2023-04-28T00:19:02;95927.50;;;7.15;100.00
54038;BME280;39954;48.844;9.726;2023-04-28T00:20:05;95925.69;;;7.17;100.00
54038;BME280;39954;48.844;9.726;2023-04-28T00:21:10;95923.69;;;7.22;100.00
54038;BME280;39954;48.844;9.726;2023-04-28T00:22:12;95919.41;;;7.23;100.00
54038;BME280;39954;48.844;9.726;2023-04-28T00:23:17;95922.66;;;7.26;100.00
54038;BME280;39954;48.844;9.726;2023-04-28T00:24:19;95920.84;;;7.28;100.00
54038;BME280;39954;48.844;9.726;2023-04-28T00:25:24;95917.22;;;7.32;100.00
54038;BME280;39954;48.844;9.726;2023-04-28T00:26:26;95925.66;;;7.36;100.00
54038;BME280;39954;48.844;9.726;2023-04-28T00:27:34;95914.31;;;7.38;100.00
54038;BME280;39954;48.844;9.726;2023-04-28T00:28:37;95916.84;;;7.40;100.00
54038;BME280;39954;48.844;9.726;2023-04-28T00:29:42;95909.00;;;7.42;100.00
54038;BME280;39954;48.844;9.726;2023-04-28T00:30:44;95911.53;;;7.43;100.00
54038;BME280;39954;48.844;9.726;2023-04-28T00:31:46;95903.09;;;7.39;100.00
54038;BME280;39954;48.844;9.726;2023-04-28T00:32:50;95906.44;;;7.42;100.00
54038;BME280;39954;48.844;9.726;2023-04-28T00:33:53;95901.19;;;7.43;100.00
54038;BME280;39954;48.844;9.726;2023-04-28T00:34:57;95895.03;;;7.46;100.00
54038;BME280;39954;48.844;9.726;2023-04-28T00:36:00;95890.72;;;7.46;100.00
54038;BME280;39954;48.844;9.726;2023-04-28T00:37:04;95898.38;;;7.48;100.00
54038;BME280;39954;48.844;9.726;2023-04-28T00:38:07;95892.22;;;7.50;100.00
54038;BME280;39954;48.844;9.726;2023-04-28T00:39:11;95889.56;;;7.52;100.00
54038;BME280;39954;48.844;9.726;2023-04-28T00:40:14;95889.56;;;7.52;100.00
54038;BME280;39954;48.844;9.726;2023-04-28T00:41:18;95897.34;;;7.52;100.00
54038;BME280;39954;48.844;9.726;2023-04-28T00:42:20;95894.75;;;7.52;100.00
54038;BME280;39954;48.844;9.726;2023-04-28T00:43:28;95903.19;;;7.55;100.00
54038;BME280;39954;48.844;9.726;2023-04-28T00:44:30;95897.13;;;7.56;100.00
54038;BME280;39954;48.844;9.726;2023-04-28T00:45:34;95896.13;;;7.59;100.00
54038;BME280;39954;48.844;9.726;2023-04-28T00:46:37;95894.31;;;7.61;100.00
54038;BME280;39954;48.844;9.726;2023-04-28T00:47:41;95898.50;;;7.63;100.00
54038;BME280;39954;48.844;9.726;2023-04-28T00:48:44;95902.53;;;7.69;100.00
54038;BME280;39954;48.844;9.726;2023-04-28T00:49:48;95897.34;;;7.69;100.00
54038;BME280;39954;48.844;9.726;2023-04-28T00:50:51;95903.44;;;7.68;100.00
54038;BME280;39954;48.844;9.726;2023-04-28T00:51:55;95894.78;;;7.69;100.00
54038;BME280;39954;48.844;9.726;2023-04-28T00:52:59;95888.69;;;7.70;100.00
54038;BME280;39954;48.844;9.726;2023-04-28T00:54:05;95889.44;;;7.72;100.00
54038;BME280;39954;48.844;9.726;2023-04-28T00:55:08;95896.22;;;7.75;100.00
54038;BME280;39954;48.844;9.726;2023-04-28T00:56:13;95902.31;;;7.74;100.00
54038;BME280;39954;48.844;9.726;2023-04-28T00:57:15;95897.97;;;7.74;100.00
54038;BME280;39954;48.844;9.726;2023-04-28T00:58:20;95896.69;;;7.83;100.00
54038;BME280;39954;48.844;9.726;2023-04-28T00:59:25;95895.03;;;7.82;100.00
54038;BME280;39954;48.844;9.726;2023-04-28T01:00:30;95894.94;;;7.83;100.00
54038;BME280;39954;48.844;9.726;2023-04-28T01:01:32;95884.59;;;7.83;100.00
54038;BME280;39954;48.844;9.726;2023-04-28T01:02:37;95888.94;;;7.83;100.00
54038;BME280;39954;48.844;9.726;2023-04-28T01:03:40;95887.16;;;7.83;100.00
54038;BME280;39954;48.844;9.726;2023-04-28T01:04:45;95882.81;;;7.84;100.00
54038;BME280;39954;48.844;9.726;2023-04-28T01:05:48;95885.28;;;7.87;100.00
54038;BME280;39954;48.844;9.726;2023-04-28T01:06:54;95882.56;;;7.90;100.00
54038;BME280;39954;48.844;9.726;2023-04-28T01:07:57;95878.97;;;7.93;100.00
54038;BME280;39954;48.844;9.726;2023-04-28T01:09:02;95878.97;;;7.93;100.00
54038;BME280;39954;48.844;9.726;2023-04-28T01:10:07;95877.28;;;7.92;100.00
54038;BME280;39954;48.844;9.726;2023-04-28T01:11:13;95875.47;;;7.94;100.00
54038;BME280;39954;48.844;9.726;2023-04-28T01:12:15;95880.63;;;7.94;100.00
54038;BME280;39954;48.844;9.726;2023-04-28T01:13:19;95879.72;;;7.95;100.00
54038;BME280;39954;48.844;9.726;2023-04-28T01:14:22;95874.53;;;7.95;100.00
54038;BME280;39954;48.844;9.726;2023-04-28T01:15:29;95877.13;;;7.95;100.00
54038;BME280;39954;48.844;9.726;2023-04-28T01:16:32;95857.19;;;7.97;100.00
54038;BME280;39954;48.844;9.726;2023-04-28T01:17:39;95864.97;;;7.97;100.00
54038;BME280;39954;48.844;9.726;2023-04-28T01:18:45;95861.59;;;7.95;100.00
54038;BME280;39954;48.844;9.726;2023-04-28T01:19:51;95855.69;;;7.93;100.00
54038;BME280;39954;48.844;9.726;2023-04-28T01:20:53;95859.00;;;7.95;100.00
54038;BME280;39954;48.844;9.726;2023-04-28T01:21:58;95858.13;;;7.96;100.00
54038;BME280;39954;48.844;9.726;2023-04-28T01:23:00;95857.13;;;7.98;100.00
54038;BME280;39954;48.844;9.726;2023-04-28T01:24:07;95857.03;;;8.00;100.00
54038;BME280;39954;48.844;9.726;2023-04-28T01:25:10;95855.38;;;7.99;100.00
54038;BME280;39954;48.844;9.726;2023-04-28T01:26:14;95850.19;;;7.99;100.00
54038;BME280;39954;48.844;9.726;2023-04-28T01:27:16;95852.78;;;7.99;100.00
54038;BME280;39954;48.844;9.726;2023-04-28T01:28:21;95847.63;;;7.99;100.00
54038;BME280;39954;48.844;9.726;2023-04-28T01:29:23;95851.09;;;7.98;100.00
54038;BME280;39954;48.844;9.726;2023-04-28T01:30:28;95847.78;;;7.96;100.00
54038;BME280;39954;48.844;9.726;2023-04-28T01:31:30;95845.91;;;7.98;100.00
54038;BME280;39954;48.844;9.726;2023-04-28T01:32:35;95851.88;;;8.00;100.00
54038;BME280;39954;48.844;9.726;2023-04-28T01:33:37;95845.03;;;7.99;100.00
54038;BME280;39954;48.844;9.726;2023-04-28T01:35:08;95842.44;;;7.99;100.00
54038;BME280;39954;48.844;9.726;2023-04-28T01:36:13;95848.59;;;7.96;100.00
54038;BME280;39954;48.844;9.726;2023-04-28T01:37:27;95846.78;;;7.98;100.00
54038;BME280;39954;48.844;9.726;2023-04-28T01:38:32;95852.03;;;7.97;100.00
54038;BME280;39954;48.844;9.726;2023-04-28T01:39:37;95854.59;;;7.97;100.00
54038;BME280;39954;48.844;9.726;2023-04-28T01:40:41;95852.94;;;7.96;100.00
54038;BME280;39954;48.844;9.726;2023-04-28T01:41:44;95854.75;;;7.94;100.00
54038;BME280;39954;48.844;9.726;2023-04-28T01:42:48;95847.00;;;7.94;100.00
54038;BME280;39954;48.844;9.726;2023-04-28T01:43:50;95854.09;;;7.90;100.00
54038;BME280;39954;48.844;9.726;2023-04-28T01:44:55;95853.22;;;7.90;100.00
54038;BME280;39954;48.844;9.726;2023-04-28T01:45:57;95848.97;;;7.89;100.00
54038;BME280;39954;48.844;9.726;2023-04-28T01:47:02;95854.09;;;7.90;100.00
54038;BME280;39954;48.844;9.726;2023-04-28T01:48:04;95844.56;;;7.91;100.00
54038;BME280;39954;48.844;9.726;2023-04-28T01:49:09;95851.56;;;7.89;100.00
54038;BME280;39954;48.844;9.726;2023-04-28T01:50:11;95850.63;;;7.90;100.00
54038;BME280;39954;48.844;9.726;2023-04-28T01:51:16;95853.09;;;7.93;100.00
54038;BME280;39954;48.844;9.726;2023-04-28T01:52:18;95855.75;;;7.91;100.00
54038;BME280;39954;48.844;9.726;2023-04-28T01:53:24;95854.75;;;7.94;100.00
54038;BME280;39954;48.844;9.726;2023-04-28T01:54:33;95848.66;;;7.95;100.00
54038;BME280;39954;48.844;9.726;2023-04-28T01:55:40;95844.25;;;7.97;100.00
54038;BME280;39954;48.844;9.726;2023-04-28T01:56:42;95841.59;;;7.98;100.00
54038;BME280;39954;48.844;9.726;2023-04-28T01:57:47;95842.44;;;7.99;100.00
54038;BME280;39954;48.844;9.726;2023-04-28T01:58:49;95839.75;;;8.00;100.00
54038;BME280;39954;48.844;9.726;2023-04-28T01:59:53;95838.94;;;8.00;100.00
54038;BME280;39954;48.844;9.726;2023-04-28T02:00:56;95847.47;;;8.02;100.00
54038;BME280;39954;48.844;9.726;2023-04-28T02:02:00;95842.13;;;8.05;100.00
54038;BME280;39954;48.844;9.726;2023-04-28T02:03:02;95840.13;;;8.10;100.00
54038;BME280;39954;48.844;9.726;2023-04-28T02:04:07;95843.91;;;8.20;100.00
54038;BME280;39954;48.844;9.726;2023-04-28T02:05:10;95843.00;;;8.21;100.00
54038;BME280;39954;48.844;9.726;2023-04-28T02:06:14;95842.69;;;8.27;100.00
54038;BME280;39954;48.844;9.726;2023-04-28T02:07:16;95844.28;;;8.30;100.00
54038;BME280;39954;48.844;9.726;2023-04-28T02:08:21;95846.06;;;8.29;100.00
54038;BME280;39954;48.844;9.726;2023-04-28T02:09:23;95844.63;;;8.24;100.00
54038;BME280;39954;48.844;9.726;2023-04-28T02:10:28;95851.56;;;8.23;100.00
54038;BME280;39954;48.844;9.726;2023-04-28T02:11:33;95853.38;;;8.21;100.00
54038;BME280;39954;48.844;9.726;2023-04-28T02:12:38;95849.25;;;8.17;100.00
54038;BME280;39954;48.844;9.726;2023-04-28T02:13:40;95845.22;;;8.12;100.00
54038;BME280;39954;48.844;9.726;2023-04-28T02:14:45;95854.84;;;8.10;100.00
54038;BME280;39954;48.844;9.726;2023-04-28T02:15:47;95847.28;;;8.05;100.00
54038;BME280;39954;48.844;9.726;2023-04-28T02:16:52;95838.09;;;7.99;100.00
54038;BME280;39954;48.844;9.726;2023-04-28T02:17:54;95833.75;;;8.00;100.00
54038;BME280;39954;48.844;9.726;2023-04-28T02:18:59;95835.72;;;7.95;100.00
54038;BME280;39954;48.844;9.726;2023-04-28T02:20:01;95841.06;;;7.92;100.00
54038;BME280;39954;48.844;9.726;2023-04-28T02:21:08;95832.53;;;7.90;100.00
54038;BME280;39954;48.844;9.726;2023-04-28T02:22:10;95835.22;;;7.88;100.00
54038;BME280;39954;48.844;9.726;2023-04-28T02:23:15;95835.38;;;7.85;100.00
54038;BME280;39954;48.844;9.726;2023-04-28T02:24:17;95829.34;;;7.84;100.00
54038;BME280;39954;48.844;9.726;2023-04-28T02:25:22;95830.41;;;7.80;100.00
54038;BME280;39954;48.844;9.726;2023-04-28T02:26:24;95826.06;;;7.81;100.00
54038;BME280;39954;48.844;9.726;2023-04-28T02:28:48;95822.59;;;7.82;100.00
54038;BME280;39954;48.844;9.726;2023-04-28T02:29:53;95817.16;;;7.87;100.00
54038;BME280;39954;48.844;9.726;2023-04-28T02:31:02;95819.84;;;7.85;100.00
54038;BME280;39954;48.844;9.726;2023-04-28T02:32:07;95821.28;;;7.91;100.00
54038;BME280;39954;48.844;9.726;2023-04-28T02:33:09;95816.16;;;7.89;100.00
54038;BME280;39954;48.844;9.726;2023-04-28T02:34:14;95817.16;;;7.87;100.00
54038;BME280;39954;48.844;9.726;2023-04-28T02:35:17;95820.88;;;7.81;100.00
54038;BME280;39954;48.844;9.726;2023-04-28T02:36:21;95820.72;;;7.84;100.00
54038;BME280;39954;48.844;9.726;2023-04-28T02:37:24;95821.50;;;7.86;100.00
54038;BME280;39954;48.844;9.726;2023-04-28T02:38:28;95817.16;;;7.87;100.00
54038;BME280;39954;48.844;9.726;2023-04-28T02:39:32;95815.34;;;7.89;100.00
54038;BME280;39954;48.844;9.726;2023-04-28T02:40:36;95811.97;;;7.87;100.00
54038;BME280;39954;48.844;9.726;2023-04-28T02:41:38;95818.03;;;7.87;100.00
54038;BME280;39954;48.844;9.726;2023-04-28T02:42:43;95818.91;;;7.86;100.00
54038;BME280;39954;48.844;9.726;2023-04-28T02:45:05;95817.88;;;7.90;100.00
54038;BME280;39954;48.844;9.726;2023-04-28T02:46:09;95815.19;;;7.92;100.00
54038;BME280;39954;48.844;9.726;2023-04-28T02:47:12;95817.00;;;7.90;100.00
54038;BME280;39954;48.844;9.726;2023-04-28T02:48:17;95810.09;;;7.90;100.00
54038;BME280;39954;48.844;9.726;2023-04-28T02:49:19;95809.25;;;7.90;100.00
54038;BME280;39954;48.844;9.726;2023-04-28T02:50:23;95811.00;;;7.89;100.00
54038;BME280;39954;48.844;9.726;2023-04-28T02:51:25;95814.50;;;7.88;100.00
54038;BME280;39954;48.844;9.726;2023-04-28T02:52:30;95812.59;;;7.92;100.00
54038;BME280;39954;48.844;9.726;2023-04-28T02:53:32;95807.34;;;7.93;100.00
54038;BME280;39954;48.844;9.726;2023-04-28T02:54:37;95809.84;;;7.95;100.00
54038;BME280;39954;48.844;9.726;2023-04-28T02:55:39;95811.53;;;7.96;100.00
54038;BME280;39954;48.844;9.726;2023-04-28T02:56:44;95810.47;;;8.00;100.00
54038;BME280;39954;48.844;9.726;2023-04-28T02:57:49;95796.69;;;7.99;100.00
54038;BME280;39954;48.844;9.726;2023-04-28T02:58:51;95798.34;;;8.00;100.00
54038;BME280;39954;48.844;9.726;2023-04-28T02:59:56;95802.53;;;8.03;100.00
54038;BME280;39954;48.844;9.726;2023-04-28T03:03:02;95797.97;;;8.08;100.00
54038;BME280;39954;48.844;9.726;2023-04-28T03:04:07;95797.03;;;8.09;100.00
54038;BME280;39954;48.844;9.726;2023-04-28T03:05:09;95803.13;;;8.08;100.00
54038;BME280;39954;48.844;9.726;2023-04-28T03:06:14;95797.03;;;8.09;100.00
54038;BME280;39954;48.844;9.726;2023-04-28T03:07:16;95797.03;;;8.09;100.00
54038;BME280;39954;48.844;9.726;2023-04-28T03:08:21;95803.13;;;8.08;100.00
54038;BME280;39954;48.844;9.726;2023-04-28T03:09:23;95802.97;;;8.11;100.00
54038;BME280;39954;48.844;9.726;2023-04-28T03:10:28;95799.41;;;8.14;100.00
54038;BME280;39954;48.844;9.726;2023-04-28T03:11:30;95800.22;;;8.14;100.00
54038;BME280;39954;48.844;9.726;2023-04-28T03:12:35;95802.81;;;8.14;100.00
54038;BME280;39954;48.844;9.726;2023-04-28T03:13:37;95804.41;;;8.17;100.00
54038;BME280;39954;48.844;9.726;2023-04-28T03:14:42;95796.41;;;8.21;100.00
54038;BME280;39954;48.844;9.726;2023-04-28T03:15:44;95799.78;;;8.23;100.00
54038;BME280;39954;48.844;9.726;2023-04-28T03:16:49;95799.63;;;8.26;100.00
54038;BME280;39954;48.844;9.726;2023-04-28T03:17:51;95795.94;;;8.30;100.00
54038;BME280;39954;48.844;9.726;2023-04-28T03:18:58;95794.88;;;8.35;100.00
54038;BME280;39954;48.844;9.726;2023-04-28T03:20:01;95795.78;;;8.34;100.00
54038;BME280;39954;48.844;9.726;2023-04-28T03:21:06;95792.28;;;8.35;100.00
54038;BME280;39954;48.844;9.726;2023-04-28T03:22:09;95792.34;;;8.33;100.00
54038;BME280;39954;48.844;9.726;2023-04-28T03:23:13;95795.78;;;8.34;100.00
54038;BME280;39954;48.844;9.726;2023-04-28T03:24:15;95787.16;;;8.33;100.00
54038;BME280;39954;48.844;9.726;2023-04-28T03:25:20;95783.81;;;8.31;100.00
54038;BME280;39954;48.844;9.726;2023-04-28T03:26:22;95783.91;;;8.29;100.00
54038;BME280;39954;48.844;9.726;2023-04-28T03:27:27;95785.69;;;8.29;100.00
54038;BME280;39954;48.844;9.726;2023-04-28T03:28:30;95778.91;;;8.26;100.00
54038;BME280;39954;48.844;9.726;2023-04-28T03:29:35;95777.03;;;8.28;100.00
54038;BME280;39954;48.844;9.726;2023-04-28T03:30:37;95770.03;;;8.30;100.00
54038;BME280;39954;48.844;9.726;2023-04-28T03:31:42;95771.69;;;8.32;100.00
54038;BME280;39954;48.844;9.726;2023-04-28T03:32:44;95769.88;;;8.34;100.00
54038;BME280;39954;48.844;9.726;2023-04-28T03:33:49;95769.81;;;8.35;100.00
54038;BME280;39954;48.844;9.726;2023-04-28T03:34:53;95762.88;;;8.36;100.00
54038;BME280;39954;48.844;9.726;2023-04-28T03:35:58;95770.63;;;8.36;100.00
54038;BME280;39954;48.844;9.726;2023-04-28T03:37:00;95772.41;;;8.35;100.00
54038;BME280;39954;48.844;9.726;2023-04-28T03:38:05;95762.88;;;8.36;100.00
54038;BME280;39954;48.844;9.726;2023-04-28T03:39:07;95760.19;;;8.37;100.00
54038;BME280;39954;48.844;9.726;2023-04-28T03:40:12;95761.94;;;8.37;100.00
54038;BME280;39954;48.844;9.726;2023-04-28T03:41:14;95767.13;;;8.37;100.00
54038;BME280;39954;48.844;9.726;2023-04-28T03:42:19;95765.47;;;8.36;100.00
54038;BME280;39954;48.844;9.726;2023-04-28T03:43:21;95769.72;;;8.37;100.00
54038;BME280;39954;48.844;9.726;2023-04-28T03:44:26;95769.66;;;8.38;100.00
54038;BME280;39954;48.844;9.726;2023-04-28T03:45:28;95768.59;;;8.42;100.00
54038;BME280;39954;48.844;9.726;2023-04-28T03:46:33;95770.94;;;8.47;100.00
54038;BME280;39954;48.844;9.726;2023-04-28T03:47:35;95772.59;;;8.48;100.00
54038;BME280;39954;48.844;9.726;2023-04-28T03:48:40;95776.78;;;8.50;100.00
54038;BME280;39954;48.844;9.726;2023-04-28T03:49:42;95768.94;;;8.52;100.00
54038;BME280;39954;48.844;9.726;2023-04-28T03:50:49;95771.44;;;8.54;100.00
54038;BME280;39954;48.844;9.726;2023-04-28T03:51:52;95767.84;;;8.56;100.00
54038;BME280;39954;48.844;9.726;2023-04-28T03:52:56;95767.69;;;8.59;100.00
54038;BME280;39954;48.844;9.726;2023-04-28T03:53:58;95772.63;;;8.64;100.00
54038;BME280;39954;48.844;9.726;2023-04-28T03:55:04;95767.94;;;8.70;100.00
54038;BME280;39954;48.844;9.726;2023-04-28T03:56:06;95767.03;;;8.71;100.00
54038;BME280;39954;48.844;9.726;2023-04-28T03:57:28;95757.56;;;8.70;100.00
54038;BME280;39954;48.844;9.726;2023-04-28T03:58:33;95763.59;;;8.71;100.00
54038;BME280;39954;48.844;9.726;2023-04-28T03:59:35;95761.75;;;8.73;100.00
54038;BME280;39954;48.844;9.726;2023-04-28T04:00:39;95767.75;;;8.73;100.00
54038;BME280;39954;48.844;9.726;2023-04-28T04:01:42;95769.63;;;8.71;100.00
54038;BME280;39954;48.844;9.726;2023-04-28T04:02:46;95769.03;;;8.66;100.00
54038;BME280;39954;48.844;9.726;2023-04-28T04:03:49;95775.97;;;8.66;100.00
54038;BME280;39954;48.844;9.726;2023-04-28T04:04:54;95771.84;;;8.62;100.00
54038;BME280;39954;48.844;9.726;2023-04-28T04:05:59;95767.69;;;8.59;100.00
54038;BME280;39954;48.844;9.726;2023-04-28T04:07:04;95773.78;;;8.58;100.00
54038;BME280;39954;48.844;9.726;2023-04-28T04:08:07;95772.19;;;8.56;100.00
54038;BME280;39954;48.844;9.726;2023-04-28T04:09:11;95768.00;;;8.53;100.00
54038;BME280;39954;48.844;9.726;2023-04-28T04:10:13;95766.41;;;8.50;100.00
54038;BME280;39954;48.844;9.726;2023-04-28T04:11:18;95763.00;;;8.50;100.00
54038;BME280;39954;48.844;9.726;2023-04-28T04:12:20;95767.09;;;8.54;100.00
54038;BME280;39954;48.844;9.726;2023-04-28T04:13:25;95771.44;;;8.54;100.00
54038;BME280;39954;48.844;9.726;2023-04-28T04:14:27;95779.31;;;8.52;100.00
54038;BME280;39954;48.844;9.726;2023-04-28T04:15:32;95776.78;;;8.50;100.00
54038;BME280;39954;48.844;9.726;2023-04-28T04:16:34;95770.00;;;8.48;100.00
54038;BME280;39954;48.844;9.726;2023-04-28T04:17:39;95763.16;;;8.47;100.00
54038;BME280;39954;48.844;9.726;2023-04-28T04:18:42;95765.75;;;8.47;100.00
54038;BME280;39954;48.844;9.726;2023-04-28T04:19:46;95763.06;;;8.48;100.00
54038;BME280;39954;48.844;9.726;2023-04-28T04:20:48;95764.84;;;8.48;100.00
54038;BME280;39954;48.844;9.726;2023-04-28T04:21:57;95762.25;;;8.48;100.00
54038;BME280;39954;48.844;9.726;2023-04-28T04:22:59;95756.16;;;8.49;100.00
54038;BME280;39954;48.844;9.726;2023-04-28T04:24:06;95760.41;;;8.50;100.00
54038;BME280;39954;48.844;9.726;2023-04-28T04:25:08;95751.06;;;8.47;100.00
54038;BME280;39954;48.844;9.726;2023-04-28T04:26:13;95757.88;;;8.48;100.00
54038;BME280;39954;48.844;9.726;2023-04-28T04:27:15;95753.56;;;8.49;100.00
54038;BME280;39954;48.844;9.726;2023-04-28T04:28:20;95757.66;;;8.53;100.00
54038;BME280;39954;48.844;9.726;2023-04-28T04:29:22;95758.41;;;8.55;100.00
54038;BME280;39954;48.844;9.726;2023-04-28T04:30:27;95759.91;;;8.59;100.00
54038;BME280;39954;48.844;9.726;2023-04-28T04:31:29;95764.25;;;8.59;100.00
54038;BME280;39954;48.844;9.726;2023-04-28T04:32:33;95759.91;;;8.59;100.00
54038;BME280;39954;48.844;9.726;2023-04-28T04:33:36;95755.66;;;8.58;100.00
54038;BME280;39954;48.844;9.726;2023-04-28T04:34:40;95755.56;;;8.60;100.00
54038;BME280;39954;48.844;9.726;2023-04-28T04:35:42;95759.91;;;8.59;100.00
54038;BME280;39954;48.844;9.726;2023-04-28T04:36:47;95758.91;;;8.62;100.00
54038;BME280;39954;48.844;9.726;2023-04-28T04:37:52;95759.75;;;8.62;100.00
54038;BME280;39954;48.844;9.726;2023-04-28T04:38:57;95762.31;;;8.62;100.00
54038;BME280;39954;48.844;9.726;2023-04-28T04:39:59;95758.91;;;8.62;100.00
54038;BME280;39954;48.844;9.726;2023-04-28T04:41:04;95761.44;;;8.63;100.00
54038;BME280;39954;48.844;9.726;2023-04-28T04:42:06;95759.56;;;8.65;100.00
54038;BME280;39954;48.844;9.726;2023-04-28T04:43:26;95758.50;;;8.69;100.00
54038;BME280;39954;48.844;9.726;2023-04-28T04:44:30;95755.91;;;8.69;100.00
54038;BME280;39954;48.844;9.726;2023-04-28T04:45:32;95757.56;;;8.70;100.00
54038;BME280;39954;48.844;9.726;2023-04-28T04:46:37;95755.75;;;8.72;100.00
54038;BME280;39954;48.844;9.726;2023-04-28T04:47:39;95748.91;;;8.71;100.00
54038;BME280;39954;48.844;9.726;2023-04-28T04:48:44;95753.91;;;8.74;100.00
54038;BME280;39954;48.844;9.726;2023-04-28T04:49:47;95754.66;;;8.77;100.00
54038;BME280;39954;48.844;9.726;2023-04-28T04:50:51;95751.16;;;8.78;100.00
54038;BME280;39954;48.844;9.726;2023-04-28T04:51:54;95762.16;;;8.81;100.00
54038;BME280;39954;48.844;9.726;2023-04-28T04:53:01;95758.69;;;8.82;100.00
54038;BME280;39954;48.844;9.726;2023-04-28T04:54:03;95764.59;;;8.84;100.00
54038;BME280;39954;48.844;9.726;2023-04-28T04:55:09;95763.59;;;8.87;100.00
54038;BME280;39954;48.844;9.726;2023-04-28T04:56:12;95766.00;;;8.90;100.00
54038;BME280;39954;48.844;9.726;2023-04-28T04:57:16;95759.00;;;8.92;100.00
54038;BME280;39954;48.844;9.726;2023-04-28T04:58:18;95762.41;;;8.92;100.00
54038;BME280;39954;48.844;9.726;2023-04-28T04:59:24;95766.59;;;8.95;100.00
54038;BME280;39954;48.844;9.726;2023-04-28T05:00:26;95763.81;;;8.98;100.00
54038;BME280;39954;48.844;9.726;2023-04-28T05:01:30;95764.59;;;9.00;100.00
54038;BME280;39954;48.844;9.726;2023-04-28T05:02:33;95759.31;;;9.02;100.00
54038;BME280;39954;48.844;9.726;2023-04-28T05:03:38;95759.88;;;9.07;100.00
54038;BME280;39954;48.844;9.726;2023-04-28T05:04:40;95764.16;;;9.08;100.00
54038;BME280;39954;48.844;9.726;2023-04-28T05:05:45;95765.59;;;9.13;100.00
54038;BME280;39954;48.844;9.726;2023-04-28T05:06:47;95761.88;;;9.17;100.00
54038;BME280;39954;48.844;9.726;2023-04-28T05:07:52;95766.81;;;9.22;100.00
54038;BME280;39954;48.844;9.726;2023-04-28T05:08:57;95765.63;;;9.28;100.00
54038;BME280;39954;48.844;9.726;2023-04-28T05:10:02;95764.53;;;9.32;100.00
54038;BME280;39954;48.844;9.726;2023-04-28T05:11:04;95760.84;;;9.36;100.00
54038;BME280;39954;48.844;9.726;2023-04-28T05:12:08;95754.72;;;9.37;100.00
54038;BME280;39954;48.844;9.726;2023-04-28T05:13:11;95755.47;;;9.39;100.00
54038;BME280;39954;48.844;9.726;2023-04-28T05:14:15;95759.72;;;9.40;100.00
54038;BME280;39954;48.844;9.726;2023-04-28T05:15:18;95754.47;;;9.41;100.00
54038;BME280;39954;48.844;9.726;2023-04-28T05:16:23;95750.00;;;9.44;100.00
54038;BME280;39954;48.844;9.726;2023-04-28T05:17:28;95758.47;;;9.47;100.00
54038;BME280;39954;48.844;9.726;2023-04-28T05:18:30;95753.28;;;9.47;100.00
54038;BME280;39954;48.844;9.726;2023-04-28T05:19:35;95756.72;;;9.48;100.00
54038;BME280;39954;48.844;9.726;2023-04-28T05:20:37;95750.59;;;9.49;100.00
54038;BME280;39954;48.844;9.726;2023-04-28T05:21:42;95755.69;;;9.50;100.00
54038;BME280;39954;48.844;9.726;2023-04-28T05:22:44;95756.59;;;9.49;100.00
54038;BME280;39954;48.844;9.726;2023-04-28T05:23:49;95751.41;;;9.49;100.00
54038;BME280;39954;48.844;9.726;2023-04-28T05:24:53;95746.16;;;9.51;100.00
54038;BME280;39954;48.844;9.726;2023-04-28T05:25:58;95746.97;;;9.51;100.00
54038;BME280;39954;48.844;9.726;2023-04-28T05:27:28;95744.13;;;9.56;100.00
54038;BME280;39954;48.844;9.726;2023-04-28T05:28:32;95737.94;;;9.58;100.00
54038;BME280;39954;48.844;9.726;2023-04-28T05:29:34;95731.63;;;9.62;100.00
54038;BME280;39954;48.844;9.726;2023-04-28T05:30:39;95734.78;;;9.68;100.00
54038;BME280;39954;48.844;9.726;2023-04-28T05:31:42;95733.59;;;9.73;100.00
54038;BME280;39954;48.844;9.726;2023-04-28T05:32:46;95735.00;;;9.79;100.00
54038;BME280;39954;48.844;9.726;2023-04-28T05:33:48;95734.63;;;9.85;100.00
54038;BME280;39954;48.844;9.726;2023-04-28T05:34:53;95732.41;;;9.93;100.00
54038;BME280;39954;48.844;9.726;2023-04-28T05:35:55;95729.44;;;9.99;100.00
54038;BME280;39954;48.844;9.726;2023-04-28T05:37:00;95722.03;;;10.07;100.00
54038;BME280;39954;48.844;9.726;2023-04-28T05:38:03;95721.56;;;10.15;100.00
54038;BME280;39954;48.844;9.726;2023-04-28T05:39:07;95725.47;;;10.22;100.00
54038;BME280;39954;48.844;9.726;2023-04-28T05:40:12;95729.31;;;10.31;100.00
54038;BME280;39954;48.844;9.726;2023-04-28T05:41:17;95731.22;;;10.42;100.00
54038;BME280;39954;48.844;9.726;2023-04-28T05:42:19;95724.84;;;10.47;100.00
54038;BME280;39954;48.844;9.726;2023-04-28T05:43:24;95731.22;;;10.42;100.00
54038;BME280;39954;48.844;9.726;2023-04-28T05:44:26;95735.56;;;10.41;100.00